Time;durP1;ratioP1;P1;durP2;ratioP2;P2;SDS_P1;SDS_P2;PMS_P1;PMS_P2;Temp;Humidity;BMP_temperature;BMP_pressure;BME280_temperature;BME280_humidity;BME280_pressure;Samples;Min_cycle;Max_cycle;Signal;HPM_P1;HPM_P2
2021/04/05 00:01:45;;;;;;;20.98;9.65;;;5.40;1.00;;;;;;5017249;28;20133;-74
2021/04/05 00:04:12;;;;;;;12.95;8.07;;;5.30;1.00;;;;;;5009954;28;20048;-72
2021/04/05 00:06:39;;;;;;;17.17;8.85;;;5.30;1.00;;;;;;5014823;28;20132;-73
2021/04/05 00:09:07;;;;;;;16.45;8.77;;;5.30;1.00;;;;;;5011960;28;20072;-73
2021/04/05 00:11:34;;;;;;;13.23;8.00;;;5.30;1.00;;;;;;5012248;28;20058;-72
2021/04/05 00:14:03;;;;;;;17.83;8.00;;;5.30;1.00;;;;;;5009480;28;20049;-72
2021/04/05 00:16:30;;;;;;;13.93;8.20;;;5.40;1.00;;;;;;5010740;28;20531;-73
2021/04/05 00:18:58;;;;;;;11.70;8.05;;;5.40;1.00;;;;;;5009960;28;20050;-73
2021/04/05 00:21:27;;;;;;;14.10;8.00;;;5.30;1.00;;;;;;5015202;28;20046;-73
2021/04/05 00:23:55;;;;;;;12.95;7.43;;;5.30;1.00;;;;;;5012376;28;20049;-73
2021/04/05 00:26:22;;;;;;;13.65;6.97;;;5.30;1.00;;;;;;5017244;28;20049;-72
2021/04/05 00:28:50;;;;;;;11.50;6.97;;;5.50;1.00;;;;;;5010321;28;20131;-74
2021/04/05 00:31:20;;;;;;;12.82;6.88;;;5.50;1.00;;;;;;5015964;28;20393;-73
2021/04/05 00:33:47;;;;;;;14.50;7.55;;;5.60;1.00;;;;;;5009340;28;20956;-73
2021/04/05 00:36:14;;;;;;;15.40;7.68;;;5.60;1.00;;;;;;5011207;28;20050;-74
2021/04/05 00:38:41;;;;;;;12.05;6.68;;;5.60;1.00;;;;;;5014863;28;20077;-73
2021/04/05 00:41:11;;;;;;;13.35;6.45;;;5.70;1.00;;;;;;5011819;28;20096;-74
2021/04/05 00:43:40;;;;;;;13.90;6.88;;;5.80;1.00;;;;;;5008090;28;20076;-73
2021/04/05 00:46:08;;;;;;;9.98;6.35;;;5.90;1.00;;;;;;5021062;28;20049;-73
2021/04/05 00:48:36;;;;;;;9.57;5.93;;;5.90;1.00;;;;;;5014619;28;20054;-73
2021/04/05 00:51:11;;;;;;;11.32;6.00;;;5.90;1.00;;;;;;5018310;28;20072;-73
2021/04/05 00:53:40;;;;;;;10.73;5.78;;;5.90;1.00;;;;;;5007637;28;20046;-74
2021/04/05 00:56:09;;;;;;;9.68;5.78;;;5.90;1.00;;;;;;5016271;28;20057;-72
2021/04/05 00:58:36;;;;;;;12.52;5.43;;;6.00;1.00;;;;;;5015404;28;20049;-73
2021/04/05 01:01:08;;;;;;;12.68;6.05;;;5.90;1.00;;;;;;5017191;28;20554;-75
2021/04/05 01:03:38;;;;;;;9.50;5.95;;;5.90;1.00;;;;;;5012049;28;20415;-72
2021/04/05 01:06:11;;;;;;;9.32;5.05;;;5.80;1.00;;;;;;5013774;28;20124;-73
2021/04/05 01:08:38;;;;;;;7.40;5.25;;;5.80;1.00;;;;;;5010689;28;20045;-73
2021/04/05 01:11:07;;;;;;;11.98;5.28;;;5.80;1.00;;;;;;5019251;28;20136;-73
2021/04/05 01:13:34;;;;;;;10.80;5.90;;;5.80;1.00;;;;;;5009176;28;20049;-73
2021/04/05 01:16:01;;;;;;;12.63;6.00;;;5.60;1.00;;;;;;5017813;28;20056;-73
2021/04/05 01:18:29;;;;;;;11.35;5.97;;;5.70;1.00;;;;;;5015671;28;20137;-72
2021/04/05 01:20:57;;;;;;;8.13;5.30;;;5.70;1.00;;;;;;5014132;28;20053;-73
2021/04/05 01:23:24;;;;;;;11.63;5.88;;;5.70;1.00;;;;;;5009954;28;20053;-73
2021/04/05 01:25:52;;;;;;;10.63;5.38;;;5.70;1.00;;;;;;5019314;28;20048;-71
2021/04/05 01:28:19;;;;;;;10.80;5.40;;;5.70;1.00;;;;;;5008528;28;20046;-73
2021/04/05 01:30:48;;;;;;;9.75;5.05;;;5.70;1.00;;;;;;5019652;28;20050;-73
2021/04/05 01:33:18;;;;;;;10.88;5.15;;;5.70;1.00;;;;;;5007385;28;20213;-72
2021/04/05 01:35:47;;;;;;;8.00;4.80;;;5.70;1.00;;;;;;5012084;28;20050;-73
2021/04/05 01:38:16;;;;;;;9.10;5.20;;;5.70;1.00;;;;;;5015504;28;20093;-74
2021/04/05 01:40:46;;;;;;;10.02;5.50;;;5.70;1.00;;;;;;5015250;28;20049;-73
2021/04/05 01:43:13;;;;;;;13.30;5.18;;;5.70;1.00;;;;;;5006002;28;20050;-73
2021/04/05 01:45:41;;;;;;;13.10;6.60;;;5.70;1.00;;;;;;5011332;28;20050;-74
2021/04/05 01:48:09;;;;;;;10.63;5.90;;;5.60;1.00;;;;;;5012933;28;20096;-72
2021/04/05 01:50:37;;;;;;;13.70;6.25;;;5.60;1.00;;;;;;5018850;28;20049;-73
2021/04/05 01:53:05;;;;;;;9.93;5.40;;;5.50;1.00;;;;;;5012424;28;20081;-72
2021/04/05 01:55:33;;;;;;;10.70;5.40;;;5.60;1.00;;;;;;5014460;28;20487;-72
2021/04/05 01:58:01;;;;;;;12.70;5.97;;;5.60;1.00;;;;;;5006175;28;20054;-72
2021/04/05 02:00:30;;;;;;;12.88;6.15;;;5.70;1.00;;;;;;5009908;28;20050;-73
2021/04/05 02:02:58;;;;;;;11.85;5.43;;;5.70;1.00;;;;;;5012769;28;20050;-73
2021/04/05 02:05:29;;;;;;;9.27;5.22;;;5.60;1.00;;;;;;5010305;28;20050;-73
2021/04/05 02:08:05;;;;;;;11.57;5.93;;;5.60;1.00;;;;;;5017705;28;20049;-72
2021/04/05 02:10:32;;;;;;;13.90;6.00;;;5.50;1.00;;;;;;5011348;28;20060;-73
2021/04/05 02:13:00;;;;;;;11.73;5.43;;;5.30;1.00;;;;;;5009387;28;20041;-73
2021/04/05 02:15:28;;;;;;;11.48;5.28;;;5.30;1.00;;;;;;5015823;28;20046;-73
2021/04/05 02:17:55;;;;;;;9.20;5.20;;;5.40;1.00;;;;;;5010803;28;20504;-73
2021/04/05 02:20:22;;;;;;;11.30;5.57;;;5.30;1.00;;;;;;5018230;28;20430;-72
2021/04/05 02:22:51;;;;;;;11.88;5.68;;;5.30;1.00;;;;;;5007822;28;20107;-73
2021/04/05 02:25:19;;;;;;;10.57;4.80;;;5.30;1.00;;;;;;5016617;28;20797;-72
2021/04/05 02:27:47;;;;;;;13.10;5.75;;;5.40;1.00;;;;;;5013259;28;20042;-73
2021/04/05 02:30:27;;;;;;;11.65;5.43;;;5.30;1.00;;;;;;5015865;28;20484;-73
2021/04/05 02:32:57;;;;;;;11.40;5.97;;;5.30;1.00;;;;;;5011983;28;20064;-73
2021/04/05 02:35:26;;;;;;;11.80;5.70;;;5.30;1.00;;;;;;5014278;28;20050;-73
2021/04/05 02:37:55;;;;;;;9.82;4.78;;;5.20;1.00;;;;;;5011082;28;20569;-73
2021/04/05 02:40:23;;;;;;;12.85;5.88;;;5.20;1.00;;;;;;5018447;28;20060;-73
2021/04/05 02:42:51;;;;;;;9.35;5.40;;;5.20;1.00;;;;;;5009607;28;20060;-72
2021/04/05 02:45:21;;;;;;;10.15;5.78;;;5.20;1.00;;;;;;5016853;28;20061;-73
2021/04/05 02:47:49;;;;;;;13.75;6.13;;;5.20;1.00;;;;;;5011986;28;20052;-73
2021/04/05 02:50:16;;;;;;;16.90;6.07;;;5.20;1.00;;;;;;5017195;28;20046;-73
2021/04/05 02:52:45;;;;;;;13.40;5.80;;;5.30;1.00;;;;;;5010114;28;20049;-73
2021/04/05 02:55:14;;;;;;;11.90;5.90;;;5.30;1.00;;;;;;5016242;28;20587;-72
2021/04/05 02:57:43;;;;;;;9.50;5.82;;;5.20;1.00;;;;;;5013045;28;20132;-73
2021/04/05 03:00:12;;;;;;;11.93;6.30;;;5.20;1.00;;;;;;5016121;28;20050;-72
2021/04/05 03:02:42;;;;;;;13.60;6.22;;;5.10;1.00;;;;;;5011960;28;20068;-73
2021/04/05 03:05:11;;;;;;;11.57;6.40;;;5.00;1.00;;;;;;5015003;28;20056;-73
2021/04/05 03:07:38;;;;;;;14.30;5.88;;;5.00;1.00;;;;;;5014870;28;20644;-72
2021/04/05 03:10:08;;;;;;;12.90;5.57;;;4.90;1.00;;;;;;5014013;28;20046;-72
2021/04/05 03:12:37;;;;;;;10.93;5.43;;;4.90;1.00;;;;;;5009820;28;20062;-74
2021/04/05 03:15:05;;;;;;;10.15;6.10;;;4.90;1.00;;;;;;5012934;28;20415;-72
2021/04/05 03:17:34;;;;;;;16.65;6.30;;;4.80;1.00;;;;;;5013709;28;20060;-72
2021/04/05 03:20:04;;;;;;;12.38;6.03;;;4.70;1.00;;;;;;5013985;28;20056;-72
2021/04/05 03:22:31;;;;;;;16.67;5.88;;;4.80;1.00;;;;;;5010774;28;20061;-73
2021/04/05 03:24:58;;;;;;;11.40;5.43;;;4.80;1.00;;;;;;5015346;28;20042;-73
2021/04/05 03:27:24;;;;;;;11.93;5.65;;;4.90;1.00;;;;;;5010449;28;20428;-72
2021/04/05 03:29:52;;;;;;;11.88;5.60;;;4.80;1.00;;;;;;5018753;28;20052;-74
2021/04/05 03:32:22;;;;;;;12.00;6.75;;;4.80;1.00;;;;;;5011939;28;20049;-73
2021/04/05 03:34:54;;;;;;;17.85;5.88;;;4.80;1.00;;;;;;5013569;28;20520;-73
2021/04/05 03:37:24;;;;;;;13.35;6.78;;;4.80;1.00;;;;;;5013088;28;20054;-73
2021/04/05 03:39:51;;;;;;;14.23;6.00;;;4.80;1.00;;;;;;5013067;28;20061;-74
2021/04/05 03:42:25;;;;;;;11.85;5.50;;;4.80;1.00;;;;;;5011720;28;20050;-73
2021/04/05 03:44:57;;;;;;;14.00;6.53;;;4.80;1.00;;;;;;5013434;28;20037;-71
2021/04/05 03:47:32;;;;;;;14.25;6.32;;;4.70;1.00;;;;;;5011224;28;20093;-73
2021/04/05 03:50:07;;;;;;;12.38;5.63;;;4.60;1.00;;;;;;5014350;28;20056;-73
2021/04/05 03:52:42;;;;;;;10.93;6.18;;;4.70;1.00;;;;;;5009574;28;20068;-73
2021/04/05 03:55:11;;;;;;;15.27;6.88;;;4.70;1.00;;;;;;5015499;28;20080;-73
2021/04/05 03:57:44;;;;;;;12.32;6.20;;;4.70;1.00;;;;;;5013198;28;20049;-72
2021/04/05 04:00:15;;;;;;;13.23;6.32;;;4.60;1.00;;;;;;5017949;28;20054;-73
2021/04/05 04:02:48;;;;;;;14.18;6.05;;;4.70;1.00;;;;;;5014899;28;20597;-73
2021/04/05 04:05:21;;;;;;;11.35;5.68;;;4.60;1.00;;;;;;5019398;28;20428;-72
2021/04/05 04:08:00;;;;;;;13.38;6.05;;;4.60;1.00;;;;;;5011848;28;20496;-71
2021/04/05 04:10:30;;;;;;;14.00;6.50;;;4.60;1.00;;;;;;5014756;28;20049;-73
2021/04/05 04:12:58;;;;;;;11.60;6.25;;;4.60;1.00;;;;;;5010821;28;20400;-73
2021/04/05 04:15:26;;;;;;;17.17;6.78;;;4.50;1.00;;;;;;5012182;28;20050;-71
2021/04/05 04:17:53;;;;;;;13.38;6.88;;;4.50;1.00;;;;;;5015207;28;20063;-72
2021/04/05 04:20:20;;;;;;;14.73;6.43;;;4.40;1.00;;;;;;5016933;28;20058;-71
2021/04/05 04:22:49;;;;;;;12.25;6.70;;;4.40;1.00;;;;;;5011097;28;20046;-73
2021/04/05 04:25:16;;;;;;;14.68;6.07;;;4.40;1.00;;;;;;5016363;28;20045;-73
2021/04/05 04:27:44;;;;;;;12.15;6.28;;;4.40;1.00;;;;;;5017123;28;20056;-73
2021/04/05 04:30:31;;;;;;;16.27;7.05;;;4.40;1.00;;;;;;5012422;28;20558;-73
2021/04/05 04:33:01;;;;;;;12.80;6.13;;;4.40;1.00;;;;;;5008334;28;20550;-73
2021/04/05 04:35:28;;;;;;;13.85;6.20;;;4.40;1.00;;;;;;5021022;28;20045;-73
2021/04/05 04:37:57;;;;;;;13.57;6.30;;;4.50;1.00;;;;;;5014517;28;20073;-73
2021/04/05 04:40:25;;;;;;;12.60;5.90;;;4.60;1.00;;;;;;5016211;28;20063;-72
2021/04/05 04:42:56;;;;;;;14.40;6.65;;;4.60;1.00;;;;;;5011879;28;20045;-73
2021/04/05 04:45:24;;;;;;;14.20;6.35;;;4.60;1.00;;;;;;5007322;28;20049;-72
2021/04/05 04:47:51;;;;;;;12.70;6.05;;;4.60;1.00;;;;;;5017434;28;20124;-72
2021/04/05 04:50:20;;;;;;;10.73;6.28;;;4.80;1.00;;;;;;5016284;28;20059;-72
2021/04/05 04:52:47;;;;;;;12.48;6.47;;;4.80;1.00;;;;;;5014412;28;20064;-73
2021/04/05 04:55:16;;;;;;;10.40;5.68;;;4.80;1.00;;;;;;5011203;28;20111;-73
2021/04/05 04:57:43;;;;;;;14.93;6.43;;;4.80;1.00;;;;;;5014364;28;20045;-72
2021/04/05 05:00:11;;;;;;;16.73;5.95;;;4.90;1.00;;;;;;5013929;28;20046;-74
2021/04/05 05:02:40;;;;;;;14.73;6.22;;;4.90;1.00;;;;;;5004924;28;20046;-73
2021/04/05 05:05:09;;;;;;;12.85;5.70;;;4.90;1.00;;;;;;5009756;28;20054;-72
2021/04/05 05:07:38;;;;;;;10.95;5.65;;;4.80;1.00;;;;;;5014669;28;20060;-72
2021/04/05 05:10:07;;;;;;;13.93;6.35;;;4.90;1.00;;;;;;5021626;28;20049;-72
2021/04/05 05:12:37;;;;;;;13.40;5.47;;;5.00;1.00;;;;;;5008968;28;20079;-72
2021/04/05 05:15:06;;;;;;;13.82;5.75;;;5.10;1.00;;;;;;5017353;28;20045;-72
2021/04/05 05:17:33;;;;;;;10.90;5.35;;;5.10;1.00;;;;;;5009870;28;20056;-72
2021/04/05 05:20:01;;;;;;;10.52;5.38;;;5.20;1.00;;;;;;5017468;28;20050;-72
2021/04/05 05:22:29;;;;;;;15.82;5.70;;;5.20;1.00;;;;;;5009528;28;20072;-72
2021/04/05 05:24:57;;;;;;;12.93;6.22;;;5.20;1.00;;;;;;5016291;28;20060;-72
2021/04/05 05:27:26;;;;;;;15.70;5.85;;;5.20;1.00;;;;;;5011406;28;20053;-72
2021/04/05 05:29:53;;;;;;;9.48;5.60;;;5.20;1.00;;;;;;5010970;28;20053;-72
2021/04/05 05:32:22;;;;;;;11.35;5.53;;;5.30;1.00;;;;;;5011743;28;20062;-73
2021/04/05 05:34:49;;;;;;;13.10;6.00;;;5.30;1.00;;;;;;5020021;28;20056;-72
2021/04/05 05:37:21;;;;;;;13.70;5.75;;;5.40;1.00;;;;;;5011018;28;20056;-71
2021/04/05 05:39:48;;;;;;;12.98;6.15;;;5.40;1.00;;;;;;5018348;28;20439;-74
2021/04/05 05:42:26;;;;;;;10.63;5.10;;;5.50;1.00;;;;;;5010103;28;20045;-72
2021/04/05 05:45:03;;;;;;;11.10;5.82;;;5.60;1.00;;;;;;5012257;28;20041;-73
2021/04/05 05:47:37;;;;;;;14.73;5.45;;;5.60;1.00;;;;;;5009607;28;20049;-73
2021/04/05 05:50:06;;;;;;;;;;;5.70;1.00;;;;;;5016050;28;20140;-73
2021/04/05 05:52:53;;;;;;;12.32;5.22;;;5.80;1.00;;;;;;5014735;28;19960;-73
2021/04/05 05:55:46;;;;;;;10.73;5.75;;;5.80;1.00;;;;;;5015877;28;20454;-73
2021/04/05 05:58:16;;;;;;;12.25;5.97;;;5.90;1.00;;;;;;5011886;28;20062;-74
2021/04/05 06:00:52;;;;;;;11.73;5.38;;;6.00;1.00;;;;;;5014427;28;20052;-73
2021/04/05 06:03:30;;;;;;;11.52;4.95;;;6.00;1.00;;;;;;5006808;28;20053;-74
2021/04/05 06:09:57;;;;;;;9.23;5.10;;;6.00;1.00;;;;;;5014652;28;20100;-73
2021/04/05 06:16:28;;;;;;;16.17;5.85;;;6.10;1.00;;;;;;5014845;28;20087;-73
2021/04/05 06:19:11;;;;;;;9.98;5.32;;;6.20;1.00;;;;;;5013294;28;20051;-74
2021/04/05 06:21:45;;;;;;;12.20;5.85;;;6.20;1.00;;;;;;5015411;28;20137;-72
2021/04/05 06:24:16;;;;;;;12.13;6.10;;;6.20;1.00;;;;;;5011102;28;20506;-73
2021/04/05 06:26:54;;;;;;;9.45;5.25;;;6.20;1.00;;;;;;5013463;28;20049;-73
2021/04/05 06:37:00;;;;;;;13.07;5.32;;;6.40;1.00;;;;;;5007322;28;20269;-72
2021/04/05 06:39:28;;;;;;;11.05;5.90;;;6.60;1.00;;;;;;5013362;28;20045;-73
2021/04/05 06:42:26;;;;;;;11.55;5.63;;;6.60;1.00;;;;;;5016104;28;20057;-73
2021/04/05 06:45:39;;;;;;;13.73;5.60;;;6.70;1.00;;;;;;5018062;28;20060;-72
2021/04/05 06:48:28;;;;;;;11.07;5.30;;;6.70;1.00;;;;;;5017284;28;20054;-72
2021/04/05 06:51:02;;;;;;;13.75;5.80;;;6.80;1.00;;;;;;5018419;28;20081;-73
2021/04/05 06:54:06;;;;;;;9.60;5.13;;;6.90;1.00;;;;;;5014329;28;20058;-73
2021/04/05 06:56:44;;;;;;;13.93;5.82;;;7.10;1.00;;;;;;4998042;28;20137;-75
2021/04/05 06:59:36;;;;;;;10.40;4.95;;;7.20;1.00;;;;;;5018517;28;20057;-73
2021/04/05 07:02:33;;;;;;;12.13;5.47;;;7.30;1.00;;;;;;5010587;28;20064;-74
2021/04/05 07:05:19;;;;;;;6.75;4.75;;;7.60;1.00;;;;;;5015672;28;20855;-74
2021/04/05 07:07:54;;;;;;;10.38;5.05;;;7.70;1.00;;;;;;5018770;28;20072;-72
2021/04/05 07:10:27;;;;;;;11.98;4.72;;;7.80;1.00;;;;;;5016739;28;21283;-72
2021/04/05 07:13:01;;;;;;;9.48;5.45;;;7.90;1.00;;;;;;5012516;28;20058;-73
2021/04/05 07:15:43;;;;;;;9.50;5.20;;;8.10;1.00;;;;;;5012946;28;20041;-73
2021/04/05 07:18:23;;;;;;;9.48;4.22;;;8.20;1.00;;;;;;5023073;28;20064;-73
2021/04/05 07:21:03;;;;;;;10.73;4.75;;;8.30;1.00;;;;;;5017357;28;20050;-73
2021/04/05 07:23:47;;;;;;;7.57;4.22;;;8.50;1.00;;;;;;5012134;28;20045;-73
2021/04/05 07:26:21;;;;;;;13.52;5.43;;;8.60;1.00;;;;;;5013139;28;20042;-73
2021/04/05 07:29:02;;;;;;;11.10;5.60;;;8.60;1.00;;;;;;5012330;28;20514;-73
2021/04/05 07:31:38;;;;;;;12.82;5.78;;;8.80;1.00;;;;;;5014912;28;20054;-74
2021/04/05 07:34:26;;;;;;;10.88;5.25;;;8.70;1.00;;;;;;5009023;28;20052;-73
2021/04/05 07:37:04;;;;;;;12.13;5.75;;;8.90;1.00;;;;;;5012309;28;20516;-73
2021/04/05 07:39:34;;;;;;;15.23;5.78;;;9.20;1.00;;;;;;5013094;28;20060;-73
2021/04/05 07:42:10;;;;;;;9.45;5.22;;;9.60;1.00;;;;;;5010460;28;20057;-74
2021/04/05 07:44:46;;;;;;;12.13;5.72;;;9.60;1.00;;;;;;5010316;28;20056;-74
2021/04/05 07:47:26;;;;;;;16.05;5.55;;;9.50;1.00;;;;;;5013010;28;20503;-74
2021/04/05 07:50:03;;;;;;;8.02;5.03;;;9.70;1.00;;;;;;5009417;28;20050;-74
2021/04/05 07:52:33;;;;;;;10.07;5.45;;;9.80;1.00;;;;;;5010095;28;20054;-73
2021/04/05 07:55:03;;;;;;;12.40;5.03;;;9.90;1.00;;;;;;5010980;28;20046;-73
2021/04/05 07:57:36;;;;;;;13.57;5.88;;;10.10;1.00;;;;;;5014851;28;20049;-74
2021/04/05 08:00:11;;;;;;;10.55;5.45;;;10.20;1.00;;;;;;5012882;28;20481;-73
2021/04/05 08:02:46;;;;;;;10.90;5.55;;;10.40;1.00;;;;;;5009812;28;20057;-73
2021/04/05 08:05:38;;;;;;;13.18;6.00;;;10.70;1.00;;;;;;5011027;28;20160;-73
2021/04/05 08:08:18;;;;;;;12.13;5.40;;;10.90;1.00;;;;;;5012007;28;20049;-74
2021/04/05 08:10:57;;;;;;;12.88;5.38;;;11.00;1.00;;;;;;5009158;28;20053;-75
2021/04/05 08:13:40;;;;;;;16.60;5.80;;;11.30;1.00;;;;;;5007491;28;20480;-74
2021/04/05 08:23:50;;;;;;;13.88;5.85;;;12.30;1.00;;;;;;5003649;28;20048;-74
2021/04/05 08:26:25;;;;;;;12.48;5.28;;;12.10;1.00;;;;;;5011553;28;20049;-72
2021/04/05 08:29:04;;;;;;;12.43;6.32;;;11.30;1.00;;;;;;5013140;28;20057;-72
2021/04/05 08:31:56;;;;;;;12.30;6.25;;;11.50;1.00;;;;;;5009791;28;20077;-73
2021/04/05 08:34:51;;;;;;;14.27;5.90;;;11.60;1.00;;;;;;5008830;28;20416;-73
2021/04/05 08:37:24;;;;;;;12.13;6.47;;;11.50;1.00;;;;;;5009779;28;20653;-72
2021/04/05 08:40:01;;;;;;;11.23;5.82;;;11.40;1.00;;;;;;5009832;28;20076;-73
2021/04/05 08:42:32;;;;;;;11.82;6.13;;;11.30;1.00;;;;;;5008214;28;20050;-72
2021/04/05 08:45:08;;;;;;;11.52;6.30;;;11.00;1.00;;;;;;5011336;28;20042;-73
2021/04/05 08:47:38;;;;;;;13.80;6.20;;;11.30;1.00;;;;;;5011116;28;20419;-73
2021/04/05 08:50:09;;;;;;;17.08;6.50;;;10.90;1.00;;;;;;5011052;28;20080;-72
2021/04/05 08:52:41;;;;;;;12.43;6.07;;;10.90;1.00;;;;;;5006391;28;20055;-73
2021/04/05 08:55:13;;;;;;;15.15;6.60;;;11.00;1.00;;;;;;5011398;28;20042;-74
2021/04/05 08:57:47;;;;;;;15.85;6.85;;;10.90;1.00;;;;;;5010466;28;20054;-74
2021/04/05 09:00:16;;;;;;;14.10;6.65;;;10.80;1.00;;;;;;5009188;28;20041;-75
2021/04/05 09:02:48;;;;;;;18.02;7.80;;;10.70;1.00;;;;;;5008035;28;20061;-73
2021/04/05 09:05:19;;;;;;;14.30;7.43;;;10.70;1.00;;;;;;5011554;28;20038;-73
2021/04/05 09:08:03;;;;;;;15.38;6.85;;;10.60;1.00;;;;;;5008481;28;20101;-73
2021/04/05 09:10:34;;;;;;;17.88;5.88;;;10.60;1.00;;;;;;5011888;28;20440;-74
2021/04/05 09:13:07;;;;;;;16.75;6.55;;;11.00;1.00;;;;;;5006642;28;20056;-74
2021/04/05 09:15:57;;;;;;;17.58;6.93;;;11.30;1.00;;;;;;5012678;28;20132;-74
2021/04/05 09:19:02;;;;;;;17.00;7.15;;;10.80;1.00;;;;;;5009756;28;20061;-73
2021/04/05 09:21:45;;;;;;;11.55;6.05;;;10.80;1.00;;;;;;4973678;28;20072;-73
2021/04/05 09:24:31;;;;;;;15.52;6.15;;;11.10;1.00;;;;;;5008667;28;20053;-74
2021/04/05 09:27:36;;;;;;;15.10;5.68;;;11.20;1.00;;;;;;5009763;28;20053;-73
2021/04/05 09:30:42;;;;;;;14.27;5.28;;;11.60;1.00;;;;;;5014933;28;20057;-73
2021/04/05 09:33:24;;;;;;;17.90;5.55;;;11.40;1.00;;;;;;5011170;28;20050;-74
2021/04/05 09:36:04;;;;;;;11.55;5.50;;;11.40;1.00;;;;;;5012511;28;20060;-73
2021/04/05 09:39:09;;;;;;;18.52;6.45;;;11.60;1.00;;;;;;5015208;28;20058;-73
2021/04/05 09:41:55;;;;;;;12.65;5.25;;;11.80;1.00;;;;;;4979337;28;20050;-72
2021/04/05 09:44:53;;;;;;;12.18;4.88;;;12.00;1.00;;;;;;5014407;28;20128;-74
2021/04/05 09:48:02;;;;;;;12.75;4.90;;;12.20;1.00;;;;;;4983985;28;20519;-73
2021/04/05 09:50:38;;;;;;;11.20;4.88;;;12.10;1.00;;;;;;5012376;28;20496;-74
2021/04/05 09:53:20;;;;;;;14.57;4.70;;;12.50;1.00;;;;;;5010400;28;20065;-72
2021/04/05 09:55:49;;;;;;;17.77;5.88;;;12.20;1.00;;;;;;5014062;28;20050;-73
2021/04/05 09:58:21;;;;;;;13.00;5.15;;;12.70;1.00;;;;;;5014939;28;20065;-73
2021/04/05 10:00:51;;;;;;;10.98;5.50;;;12.40;1.00;;;;;;5014544;28;20427;-75
2021/04/05 10:03:20;;;;;;;13.25;4.32;;;12.00;1.00;;;;;;5011444;28;20064;-74
2021/04/05 10:05:49;;;;;;;12.43;5.57;;;11.90;1.00;;;;;;5012751;28;20057;-74
2021/04/05 10:08:22;;;;;;;15.02;5.15;;;11.80;1.00;;;;;;5013669;28;20049;-73
2021/04/05 10:10:51;;;;;;;12.02;4.53;;;11.70;1.00;;;;;;5017431;28;20073;-74
2021/04/05 10:13:20;;;;;;;9.20;4.03;;;11.80;1.00;;;;;;5011798;28;20108;-73
2021/04/05 10:15:51;;;;;;;11.15;4.88;;;11.70;1.00;;;;;;5012891;28;20060;-73
2021/04/05 10:18:18;;;;;;;17.25;4.53;;;11.90;1.00;;;;;;5012773;28;20057;-74
2021/04/05 10:20:49;;;;;;;12.30;4.75;;;12.10;1.00;;;;;;5014281;28;20447;-73
2021/04/05 10:23:20;;;;;;;14.05;5.22;;;12.50;1.00;;;;;;5012008;28;20060;-73
2021/04/05 10:25:54;;;;;;;13.73;4.75;;;12.10;1.00;;;;;;5014391;28;20558;-74
2021/04/05 10:28:23;;;;;;;8.13;4.40;;;12.60;1.00;;;;;;5009288;28;20520;-75
2021/04/05 10:30:55;;;;;;;11.48;4.53;;;12.70;1.00;;;;;;5014678;28;20515;-73
2021/04/05 10:33:28;;;;;;;11.05;4.57;;;12.70;1.00;;;;;;5009756;28;20065;-73
2021/04/05 10:36:00;;;;;;;12.95;5.07;;;12.60;1.00;;;;;;5010877;28;20050;-74
2021/04/05 10:38:29;;;;;;;10.00;4.60;;;12.30;1.00;;;;;;5011527;28;20428;-74
2021/04/05 10:40:57;;;;;;;15.70;5.63;;;12.30;1.00;;;;;;5011226;28;20052;-73
2021/04/05 10:43:27;;;;;;;13.70;4.97;;;12.40;1.00;;;;;;5012007;28;20054;-74
2021/04/05 10:45:57;;;;;;;9.38;5.03;;;12.30;1.00;;;;;;5013553;28;20202;-74
2021/04/05 10:48:36;;;;;;;11.15;4.57;;;12.60;1.00;;;;;;5014965;28;20057;-74
2021/04/05 10:51:10;;;;;;;10.38;4.60;;;13.00;1.00;;;;;;5014519;28;20104;-73
2021/04/05 10:53:41;;;;;;;11.48;5.57;;;12.90;1.00;;;;;;5015136;28;20057;-72
2021/04/05 10:56:10;;;;;;;12.00;5.28;;;11.90;1.00;;;;;;5020459;28;20060;-73
2021/04/05 10:58:48;;;;;;;13.00;5.78;;;12.40;1.00;;;;;;5015725;28;20053;-74
2021/04/05 11:01:17;;;;;;;15.10;6.25;;;12.30;1.00;;;;;;5018955;28;20053;-72
2021/04/05 11:03:49;;;;;;;14.30;5.63;;;11.60;1.00;;;;;;5011805;28;20050;-72
2021/04/05 11:06:20;;;;;;;18.42;7.10;;;11.40;1.00;;;;;;5017431;28;20057;-73
2021/04/05 11:08:50;;;;;;;18.05;6.88;;;12.10;1.00;;;;;;5016000;28;20112;-73
2021/04/05 11:11:22;;;;;;;15.05;5.93;;;11.70;1.00;;;;;;5012973;28;20496;-72
2021/04/05 11:13:51;;;;;;;18.52;6.78;;;11.60;1.00;;;;;;5014559;28;20060;-72
2021/04/05 11:16:21;;;;;;;15.10;7.25;;;11.60;1.00;;;;;;5015151;28;20073;-72
2021/04/05 11:18:50;;;;;;;30.13;7.60;;;11.30;1.00;;;;;;5022862;28;20144;-72
2021/04/05 11:21:20;;;;;;;20.83;7.20;;;11.90;1.00;;;;;;5018572;28;20058;-73
2021/04/05 11:23:50;;;;;;;17.40;7.22;;;12.00;1.00;;;;;;5022326;28;20497;-73
2021/04/05 11:26:25;;;;;;;21.27;7.68;;;11.50;1.00;;;;;;5020855;28;20820;-73
2021/04/05 11:28:55;;;;;;;31.20;7.68;;;11.40;1.00;;;;;;5015766;28;20049;-73
2021/04/05 11:31:23;;;;;;;16.55;6.22;;;11.20;1.00;;;;;;5018984;28;20049;-73
2021/04/05 11:33:55;;;;;;;21.92;9.07;;;11.60;1.00;;;;;;5010621;28;20049;-73
2021/04/05 11:36:26;;;;;;;16.85;7.30;;;11.90;1.00;;;;;;5016634;28;20046;-74
2021/04/05 11:38:54;;;;;;;18.85;7.60;;;12.00;1.00;;;;;;5015744;28;20041;-72
2021/04/05 11:41:29;;;;;;;17.70;7.13;;;11.80;1.00;;;;;;5012645;28;20180;-72
2021/04/05 11:43:59;;;;;;;19.23;6.90;;;11.30;1.00;;;;;;5013378;28;20045;-73
2021/04/05 11:46:29;;;;;;;12.73;6.85;;;11.50;1.00;;;;;;5014010;28;20057;-72
2021/04/05 11:49:02;;;;;;;18.48;8.10;;;11.30;1.00;;;;;;5014537;28;20543;-73
2021/04/05 11:51:37;;;;;;;21.85;8.25;;;11.40;1.00;;;;;;5014645;28;20053;-72
2021/04/05 11:54:07;;;;;;;19.88;8.40;;;11.20;1.00;;;;;;5015048;28;20072;-71
2021/04/05 11:56:37;;;;;;;24.23;9.23;;;10.80;1.00;;;;;;5020315;28;20415;-73
2021/04/05 11:59:08;;;;;;;16.30;9.18;;;11.00;1.00;;;;;;5013964;28;20057;-73
2021/04/05 12:01:41;;;;;;;19.20;8.93;;;10.70;1.00;;;;;;5013156;28;20050;-73
2021/04/05 12:04:15;;;;;;;23.23;9.30;;;11.00;1.00;;;;;;5015130;28;20054;-72
2021/04/05 12:06:46;;;;;;;24.97;10.13;;;11.50;1.00;;;;;;5014141;28;20515;-72
2021/04/05 12:09:20;;;;;;;19.73;10.00;;;11.00;1.00;;;;;;5017102;28;20041;-72
2021/04/05 12:11:50;;;;;;;22.77;8.88;;;11.00;1.00;;;;;;5017829;28;20049;-73
2021/04/05 12:14:21;;;;;;;19.05;9.18;;;10.60;1.00;;;;;;5009974;28;20054;-73
2021/04/05 12:16:50;;;;;;;17.90;9.30;;;10.50;1.00;;;;;;5014332;28;20045;-73
2021/04/05 12:19:22;;;;;;;20.25;9.50;;;10.60;1.00;;;;;;5014869;28;20133;-74
2021/04/05 12:21:52;;;;;;;24.02;10.25;;;10.60;1.00;;;;;;5016103;28;20061;-74
2021/04/05 12:24:28;;;;;;;20.52;9.38;;;10.50;1.00;;;;;;5017281;28;20507;-73
2021/04/05 12:26:58;;;;;;;17.83;8.88;;;10.60;1.00;;;;;;5010907;28;20053;-72
2021/04/05 12:29:26;;;;;;;23.70;9.13;;;10.50;1.00;;;;;;5009094;28;20124;-73
2021/04/05 12:31:55;;;;;;;22.17;9.77;;;10.70;1.00;;;;;;5009519;28;20115;-72
2021/04/05 12:34:28;;;;;;;19.77;10.27;;;10.90;1.00;;;;;;5010542;28;20447;-74
2021/04/05 12:36:57;;;;;;;28.30;9.60;;;10.60;1.00;;;;;;5008653;28;20369;-73
2021/04/05 12:39:30;;;;;;;14.98;9.02;;;10.90;1.00;;;;;;5012967;28;20045;-72
2021/04/05 12:41:58;;;;;;;24.65;10.38;;;10.70;1.00;;;;;;5008528;28;20057;-73
2021/04/05 12:44:27;;;;;;;23.00;9.73;;;10.40;1.00;;;;;;5008929;28;20045;-73
2021/04/05 12:46:56;;;;;;;19.10;10.65;;;10.70;1.00;;;;;;5011807;28;20423;-74
2021/04/05 12:49:26;;;;;;;29.20;11.63;;;10.90;1.00;;;;;;5015464;28;20415;-73
2021/04/05 12:51:55;;;;;;;23.70;10.35;;;10.50;1.00;;;;;;5007319;28;20054;-73
2021/04/05 12:54:25;;;;;;;22.55;10.27;;;10.70;1.00;;;;;;5007838;28;20046;-73
2021/04/05 12:56:54;;;;;;;22.35;10.15;;;11.00;1.00;;;;;;5009458;28;20065;-74
2021/04/05 12:59:25;;;;;;;22.70;9.80;;;10.90;1.00;;;;;;5009398;28;20046;-74
2021/04/05 13:01:54;;;;;;;28.85;10.70;;;11.10;1.00;;;;;;5007493;28;20072;-74
2021/04/05 13:04:22;;;;;;;33.60;10.07;;;11.20;1.00;;;;;;5005674;28;20415;-74
2021/04/05 13:06:55;;;;;;;17.30;9.10;;;11.10;1.00;;;;;;5006658;28;20403;-74
2021/04/05 13:09:27;;;;;;;21.42;8.32;;;10.70;1.00;;;;;;5012911;28;20053;-74
2021/04/05 13:11:57;;;;;;;21.33;9.20;;;10.70;1.00;;;;;;5009106;28;20057;-74
2021/04/05 13:14:28;;;;;;;23.02;9.32;;;10.60;1.00;;;;;;5007801;28;20053;-73
2021/04/05 13:17:02;;;;;;;29.38;10.27;;;10.70;1.00;;;;;;5007644;28;20060;-75
2021/04/05 13:19:34;;;;;;;22.10;8.43;;;10.60;1.00;;;;;;5010269;28;20415;-75
2021/04/05 13:22:02;;;;;;;17.20;8.70;;;10.30;1.00;;;;;;5009409;28;20284;-73
2021/04/05 13:24:32;;;;;;;25.27;9.82;;;10.20;1.00;;;;;;5007020;28;20069;-73
2021/04/05 13:27:02;;;;;;;18.05;8.95;;;10.30;1.00;;;;;;5008264;28;20046;-74
2021/04/05 13:29:31;;;;;;;21.42;8.13;;;10.20;1.00;;;;;;5010367;28;20468;-73
2021/04/05 13:32:02;;;;;;;22.33;8.70;;;10.40;1.00;;;;;;5017202;28;20056;-74
2021/04/05 13:34:31;;;;;;;21.15;9.02;;;10.10;1.00;;;;;;5005735;28;20050;-74
2021/04/05 13:37:03;;;;;;;15.35;8.07;;;10.20;1.00;;;;;;5007717;28;20053;-71
2021/04/05 13:39:32;;;;;;;18.27;8.18;;;10.10;1.00;;;;;;5008775;28;20500;-73
2021/04/05 13:42:02;;;;;;;18.73;8.07;;;10.20;1.00;;;;;;5013877;28;20060;-73
2021/04/05 13:44:32;;;;;;;13.45;7.35;;;10.00;1.00;;;;;;5008104;28;20559;-73